sensor_id;sensor_type;location;lat;lon;timestamp;P1;durP1;ratioP1;P2;durP2;ratioP2
57339;SDS011;43174;50.930;18.170;2023-04-06T00:00:47;52.70;;;22.60;;
57339;SDS011;43174;50.930;18.170;2023-04-06T00:10:28;26.50;;;23.80;;
57339;SDS011;43174;50.930;18.170;2023-04-06T00:20:12;29.50;;;26.30;;
57339;SDS011;43174;50.930;18.170;2023-04-06T00:29:55;46.80;;;26.90;;
57339;SDS011;43174;50.930;18.170;2023-04-06T00:39:37;42.20;;;27.10;;
57339;SDS011;43174;50.930;18.170;2023-04-06T00:49:20;27.40;;;24.50;;
57339;SDS011;43174;50.930;18.170;2023-04-06T00:59:02;49.80;;;26.90;;
57339;SDS011;43174;50.930;18.170;2023-04-06T01:08:45;52.00;;;30.80;;
57339;SDS011;43174;50.930;18.170;2023-04-06T01:18:27;43.60;;;20.70;;
57339;SDS011;43174;50.930;18.170;2023-04-06T01:28:10;45.40;;;26.40;;
57339;SDS011;43174;50.930;18.170;2023-04-06T01:37:52;31.60;;;28.20;;
57339;SDS011;43174;50.930;18.170;2023-04-06T01:47:34;41.80;;;22.90;;
57339;SDS011;43174;50.930;18.170;2023-04-06T01:57:16;37.40;;;26.70;;
57339;SDS011;43174;50.930;18.170;2023-04-06T02:06:58;69.50;;;26.70;;
57339;SDS011;43174;50.930;18.170;2023-04-06T02:16:40;38.00;;;25.10;;
57339;SDS011;43174;50.930;18.170;2023-04-06T02:26:23;26.40;;;23.60;;
57339;SDS011;43174;50.930;18.170;2023-04-06T02:36:06;31.10;;;24.20;;
57339;SDS011;43174;50.930;18.170;2023-04-06T02:45:48;47.20;;;24.30;;
57339;SDS011;43174;50.930;18.170;2023-04-06T02:55:30;27.70;;;25.10;;
57339;SDS011;43174;50.930;18.170;2023-04-06T03:05:12;73.60;;;25.00;;
57339;SDS011;43174;50.930;18.170;2023-04-06T03:14:54;19.00;;;15.90;;
57339;SDS011;43174;50.930;18.170;2023-04-06T03:24:36;58.20;;;24.50;;
57339;SDS011;43174;50.930;18.170;2023-04-06T03:34:18;49.40;;;22.60;;
57339;SDS011;43174;50.930;18.170;2023-04-06T03:44:00;35.60;;;23.10;;
57339;SDS011;43174;50.930;18.170;2023-04-06T03:53:42;25.40;;;18.40;;
57339;SDS011;43174;50.930;18.170;2023-04-06T04:03:24;35.10;;;24.90;;
57339;SDS011;43174;50.930;18.170;2023-04-06T04:13:08;73.00;;;17.10;;
57339;SDS011;43174;50.930;18.170;2023-04-06T04:22:51;71.00;;;28.10;;
57339;SDS011;43174;50.930;18.170;2023-04-06T04:32:33;39.70;;;31.70;;
57339;SDS011;43174;50.930;18.170;2023-04-06T04:42:16;25.50;;;23.20;;
57339;SDS011;43174;50.930;18.170;2023-04-06T04:51:58;87.70;;;25.80;;
57339;SDS011;43174;50.930;18.170;2023-04-06T05:01:41;37.10;;;28.20;;
57339;SDS011;43174;50.930;18.170;2023-04-06T05:11:23;23.00;;;20.40;;
57339;SDS011;43174;50.930;18.170;2023-04-06T05:21:07;62.90;;;43.90;;
57339;SDS011;43174;50.930;18.170;2023-04-06T05:30:49;53.10;;;37.00;;
57339;SDS011;43174;50.930;18.170;2023-04-06T05:40:32;50.50;;;32.90;;
57339;SDS011;43174;50.930;18.170;2023-04-06T05:50:15;46.80;;;31.90;;
57339;SDS011;43174;50.930;18.170;2023-04-06T05:59:59;86.20;;;39.40;;
57339;SDS011;43174;50.930;18.170;2023-04-06T06:09:42;57.90;;;32.40;;
57339;SDS011;43174;50.930;18.170;2023-04-06T06:19:25;70.90;;;36.50;;
57339;SDS011;43174;50.930;18.170;2023-04-06T06:29:08;72.90;;;36.00;;
57339;SDS011;43174;50.930;18.170;2023-04-06T06:38:51;74.90;;;41.80;;
57339;SDS011;43174;50.930;18.170;2023-04-06T06:48:33;57.70;;;33.10;;
57339;SDS011;43174;50.930;18.170;2023-04-06T06:58:19;51.00;;;38.60;;
57339;SDS011;43174;50.930;18.170;2023-04-06T07:08:04;43.70;;;35.90;;
57339;SDS011;43174;50.930;18.170;2023-04-06T07:17:47;60.90;;;36.40;;
57339;SDS011;43174;50.930;18.170;2023-04-06T07:27:33;37.10;;;33.20;;
57339;SDS011;43174;50.930;18.170;2023-04-06T07:37:17;49.10;;;32.30;;
57339;SDS011;43174;50.930;18.170;2023-04-06T07:39:43;68.90;;;46.40;;
57339;SDS011;43174;50.930;18.170;2023-04-06T07:49:26;35.40;;;29.50;;
57339;SDS011;43174;50.930;18.170;2023-04-06T07:59:09;31.30;;;26.90;;
57339;SDS011;43174;50.930;18.170;2023-04-06T08:08:53;25.90;;;19.20;;
57339;SDS011;43174;50.930;18.170;2023-04-06T08:18:36;35.60;;;23.90;;
57339;SDS011;43174;50.930;18.170;2023-04-06T08:28:20;23.00;;;20.80;;
57339;SDS011;43174;50.930;18.170;2023-04-06T08:38:07;21.10;;;18.90;;
57339;SDS011;43174;50.930;18.170;2023-04-06T08:47:50;13.00;;;12.00;;
57339;SDS011;43174;50.930;18.170;2023-04-06T08:57:36;9.90;;;9.30;;
57339;SDS011;43174;50.930;18.170;2023-04-06T09:07:19;10.80;;;9.80;;
57339;SDS011;43174;50.930;18.170;2023-04-06T09:17:08;12.10;;;11.00;;
57339;SDS011;43174;50.930;18.170;2023-04-06T09:26:51;11.20;;;10.60;;
57339;SDS011;43174;50.930;18.170;2023-04-06T09:36:35;13.00;;;12.20;;
57339;SDS011;43174;50.930;18.170;2023-04-06T09:46:18;12.80;;;10.50;;
57339;SDS011;43174;50.930;18.170;2023-04-06T09:56:04;11.80;;;10.90;;
57339;SDS011;43174;50.930;18.170;2023-04-06T10:06:09;9.90;;;9.30;;
57339;SDS011;43174;50.930;18.170;2023-04-06T10:15:54;8.20;;;7.60;;
57339;SDS011;43174;50.930;18.170;2023-04-06T10:25:39;8.10;;;7.30;;
57339;SDS011;43174;50.930;18.170;2023-04-06T10:35:22;9.10;;;6.90;;
57339;SDS011;43174;50.930;18.170;2023-04-06T10:45:06;14.00;;;6.00;;
57339;SDS011;43174;50.930;18.170;2023-04-06T10:54:50;5.10;;;4.80;;
57339;SDS011;43174;50.930;18.170;2023-04-06T11:04:32;6.80;;;6.50;;
57339;SDS011;43174;50.930;18.170;2023-04-06T11:14:15;6.50;;;6.20;;
57339;SDS011;43174;50.930;18.170;2023-04-06T11:24:08;6.00;;;5.60;;
57339;SDS011;43174;50.930;18.170;2023-04-06T11:33:56;7.10;;;6.70;;
57339;SDS011;43174;50.930;18.170;2023-04-06T11:43:38;8.40;;;7.80;;
57339;SDS011;43174;50.930;18.170;2023-04-06T11:53:30;7.80;;;7.20;;
57339;SDS011;43174;50.930;18.170;2023-04-06T12:03:14;7.70;;;7.30;;
57339;SDS011;43174;50.930;18.170;2023-04-06T12:12:57;6.70;;;6.30;;
57339;SDS011;43174;50.930;18.170;2023-04-06T12:22:41;8.50;;;7.90;;
57339;SDS011;43174;50.930;18.170;2023-04-06T12:32:23;7.80;;;7.30;;
57339;SDS011;43174;50.930;18.170;2023-04-06T12:42:10;8.20;;;7.80;;
57339;SDS011;43174;50.930;18.170;2023-04-06T12:51:53;7.30;;;6.90;;
57339;SDS011;43174;50.930;18.170;2023-04-06T13:01:37;6.70;;;6.00;;
57339;SDS011;43174;50.930;18.170;2023-04-06T13:11:20;10.80;;;8.00;;
57339;SDS011;43174;50.930;18.170;2023-04-06T13:21:07;8.70;;;8.00;;
57339;SDS011;43174;50.930;18.170;2023-04-06T13:30:51;10.20;;;9.60;;
57339;SDS011;43174;50.930;18.170;2023-04-06T13:40:34;10.20;;;9.40;;
57339;SDS011;43174;50.930;18.170;2023-04-06T13:50:18;13.30;;;12.30;;
57339;SDS011;43174;50.930;18.170;2023-04-06T14:00:04;9.30;;;8.80;;
57339;SDS011;43174;50.930;18.170;2023-04-06T14:09:49;12.20;;;11.10;;
57339;SDS011;43174;50.930;18.170;2023-04-06T14:19:35;11.80;;;10.90;;
57339;SDS011;43174;50.930;18.170;2023-04-06T14:22:01;15.20;;;14.10;;
57339;SDS011;43174;50.930;18.170;2023-04-06T14:31:45;13.00;;;12.20;;
57339;SDS011;43174;50.930;18.170;2023-04-06T14:41:30;16.60;;;14.90;;
57339;SDS011;43174;50.930;18.170;2023-04-06T14:51:13;15.70;;;14.50;;
57339;SDS011;43174;50.930;18.170;2023-04-06T15:00:59;29.10;;;16.30;;
57339;SDS011;43174;50.930;18.170;2023-04-06T15:10:46;15.50;;;14.50;;
57339;SDS011;43174;50.930;18.170;2023-04-06T15:20:29;15.90;;;14.80;;
57339;SDS011;43174;50.930;18.170;2023-04-06T15:37:29;11.60;;;10.50;;
57339;SDS011;43174;50.930;18.170;2023-04-06T15:47:12;13.80;;;10.50;;
57339;SDS011;43174;50.930;18.170;2023-04-06T15:56:55;9.60;;;9.00;;
57339;SDS011;43174;50.930;18.170;2023-04-06T16:06:39;9.00;;;8.60;;
57339;SDS011;43174;50.930;18.170;2023-04-06T16:16:23;8.60;;;8.00;;
57339;SDS011;43174;50.930;18.170;2023-04-06T16:26:11;8.30;;;7.90;;
57339;SDS011;43174;50.930;18.170;2023-04-06T16:35:54;12.70;;;11.40;;
57339;SDS011;43174;50.930;18.170;2023-04-06T16:45:38;8.30;;;7.70;;
57339;SDS011;43174;50.930;18.170;2023-04-06T16:55:21;8.70;;;8.10;;
57339;SDS011;43174;50.930;18.170;2023-04-06T17:05:05;6.90;;;6.20;;
57339;SDS011;43174;50.930;18.170;2023-04-06T17:14:48;9.30;;;8.80;;
57339;SDS011;43174;50.930;18.170;2023-04-06T17:24:32;21.00;;;13.20;;
57339;SDS011;43174;50.930;18.170;2023-04-06T17:34:15;7.40;;;7.10;;
57339;SDS011;43174;50.930;18.170;2023-04-06T17:43:59;30.20;;;23.20;;
57339;SDS011;43174;50.930;18.170;2023-04-06T17:53:45;14.60;;;13.50;;
57339;SDS011;43174;50.930;18.170;2023-04-06T18:03:28;20.40;;;18.80;;
57339;SDS011;43174;50.930;18.170;2023-04-06T18:13:14;14.10;;;12.80;;
57339;SDS011;43174;50.930;18.170;2023-04-06T18:22:59;4.10;;;3.90;;
57339;SDS011;43174;50.930;18.170;2023-04-06T18:32:42;12.10;;;11.30;;
57339;SDS011;43174;50.930;18.170;2023-04-06T18:42:26;16.20;;;14.70;;
57339;SDS011;43174;50.930;18.170;2023-04-06T18:52:09;11.90;;;11.20;;
57339;SDS011;43174;50.930;18.170;2023-04-06T19:01:55;20.70;;;15.60;;
57339;SDS011;43174;50.930;18.170;2023-04-06T19:11:41;14.40;;;13.50;;
57339;SDS011;43174;50.930;18.170;2023-04-06T19:21:31;18.40;;;17.10;;
57339;SDS011;43174;50.930;18.170;2023-04-06T19:31:18;12.60;;;11.40;;
57339;SDS011;43174;50.930;18.170;2023-04-06T19:41:01;13.90;;;11.10;;
57339;SDS011;43174;50.930;18.170;2023-04-06T19:50:45;11.70;;;11.00;;
57339;SDS011;43174;50.930;18.170;2023-04-06T20:00:27;20.70;;;12.00;;
57339;SDS011;43174;50.930;18.170;2023-04-06T20:10:11;41.00;;;14.70;;
57339;SDS011;43174;50.930;18.170;2023-04-06T20:19:55;14.00;;;13.20;;
57339;SDS011;43174;50.930;18.170;2023-04-06T20:29:37;14.30;;;13.20;;
57339;SDS011;43174;50.930;18.170;2023-04-06T20:39:20;25.90;;;17.80;;
57339;SDS011;43174;50.930;18.170;2023-04-06T20:49:03;11.50;;;10.90;;
57339;SDS011;43174;50.930;18.170;2023-04-06T20:58:47;22.10;;;19.90;;
57339;SDS011;43174;50.930;18.170;2023-04-06T21:08:34;23.40;;;12.70;;
57339;SDS011;43174;50.930;18.170;2023-04-06T21:18:21;20.50;;;18.70;;
57339;SDS011;43174;50.930;18.170;2023-04-06T21:28:03;16.60;;;15.00;;
57339;SDS011;43174;50.930;18.170;2023-04-06T21:37:52;14.70;;;13.90;;
57339;SDS011;43174;50.930;18.170;2023-04-06T21:47:35;16.60;;;15.40;;
57339;SDS011;43174;50.930;18.170;2023-04-06T21:57:18;26.30;;;16.90;;
57339;SDS011;43174;50.930;18.170;2023-04-06T22:07:00;13.60;;;12.60;;
57339;SDS011;43174;50.930;18.170;2023-04-06T22:16:43;18.40;;;16.80;;
57339;SDS011;43174;50.930;18.170;2023-04-06T22:26:25;35.00;;;19.50;;
57339;SDS011;43174;50.930;18.170;2023-04-06T22:36:07;13.40;;;12.90;;
57339;SDS011;43174;50.930;18.170;2023-04-06T22:45:49;19.10;;;18.20;;
57339;SDS011;43174;50.930;18.170;2023-04-06T22:55:31;19.90;;;17.40;;
57339;SDS011;43174;50.930;18.170;2023-04-06T23:05:13;24.90;;;22.70;;
57339;SDS011;43174;50.930;18.170;2023-04-06T23:14:54;22.60;;;18.30;;
57339;SDS011;43174;50.930;18.170;2023-04-06T23:24:38;19.90;;;18.50;;
57339;SDS011;43174;50.930;18.170;2023-04-06T23:34:22;34.90;;;27.90;;
57339;SDS011;43174;50.930;18.170;2023-04-06T23:44:04;44.60;;;23.10;;
57339;SDS011;43174;50.930;18.170;2023-04-06T23:53:46;22.70;;;19.50;;
